createdAt,value
2022-08-26T00:01:19.478Z,100616.64
2022-08-26T00:04:12.017Z,100612.90
2022-08-26T00:06:55.044Z,100610.68
2022-08-26T00:09:40.166Z,100608.08
2022-08-26T00:12:22.169Z,100601.80
2022-08-26T00:15:20.453Z,100596.70
2022-08-26T00:18:02.755Z,100593.46
2022-08-26T00:20:45.470Z,100591.91
2022-08-26T00:23:28.853Z,100589.45
2022-08-26T00:26:11.125Z,100590.80
2022-08-26T00:28:53.225Z,100588.97
2022-08-26T00:31:35.178Z,100592.70
2022-08-26T00:34:19.367Z,100586.60
2022-08-26T00:37:01.764Z,100587.48
2022-08-26T00:39:44.270Z,100587.21
2022-08-26T00:42:28.008Z,100588.96
2022-08-26T00:45:11.754Z,100586.98
2022-08-26T00:48:01.425Z,100588.54
2022-08-26T00:50:54.893Z,100584.34
2022-08-26T00:53:42.230Z,100577.16
2022-08-26T00:56:54.116Z,100578.64
2022-08-26T00:59:36.535Z,100575.68
2022-08-26T01:02:21.794Z,100577.17
2022-08-26T01:05:05.025Z,100571.17
2022-08-26T01:07:47.740Z,100571.96
2022-08-26T01:10:32.093Z,100573.61
2022-08-26T01:13:14.603Z,100572.61
2022-08-26T01:16:00.397Z,100571.23
2022-08-26T01:18:45.050Z,100568.54
2022-08-26T01:21:29.444Z,100569.63
2022-08-26T01:24:12.427Z,100569.91
2022-08-26T01:27:02.710Z,100570.77
2022-08-26T01:29:47.379Z,100571.23
2022-08-26T01:32:33.483Z,100571.77
2022-08-26T01:35:15.881Z,100571.14
2022-08-26T01:37:58.495Z,100572.95
2022-08-26T01:40:43.769Z,100566.27
2022-08-26T01:43:27.942Z,100563.61
2022-08-26T01:46:12.232Z,100560.62
2022-08-26T01:48:57.445Z,100560.59
2022-08-26T01:51:41.333Z,100562.83
2022-08-26T01:54:25.125Z,100560.54
2022-08-26T01:57:08.250Z,100555.41
2022-08-26T01:59:51.735Z,100551.71
2022-08-26T02:02:33.782Z,100553.02
2022-08-26T02:05:20.336Z,100547.38
2022-08-26T02:08:03.535Z,100546.34
2022-08-26T02:10:46.024Z,100542.93
2022-08-26T02:13:31.509Z,100538.88
2022-08-26T02:16:17.960Z,100536.52
2022-08-26T02:19:01.712Z,100533.65
2022-08-26T02:21:51.971Z,100535.41
2022-08-26T02:24:56.155Z,100536.98
2022-08-26T02:27:38.155Z,100536.31
2022-08-26T02:30:25.396Z,100532.66
2022-08-26T02:33:08.237Z,100528.85
2022-08-26T02:35:50.394Z,100529.45
2022-08-26T02:38:33.007Z,100529.80
2022-08-26T02:41:15.568Z,100528.79
2022-08-26T02:44:00.589Z,100530.39
2022-08-26T02:46:46.941Z,100534.16
2022-08-26T02:49:30.727Z,100535.73
2022-08-26T02:52:12.828Z,100536.44
2022-08-26T02:54:55.266Z,100531.77
2022-08-26T02:57:37.852Z,100531.57
2022-08-26T03:00:20.304Z,100530.73
2022-08-26T03:03:02.459Z,100531.40
2022-08-26T03:05:44.724Z,100529.16
2022-08-26T03:08:27.019Z,100523.77
2022-08-26T03:11:09.480Z,100529.02
2022-08-26T03:13:54.141Z,100522.39
2022-08-26T03:16:37.981Z,100521.39
2022-08-26T03:19:21.513Z,100523.92
2022-08-26T03:22:05.047Z,100523.80
2022-08-26T03:24:46.943Z,100529.02
2022-08-26T03:27:28.839Z,100523.89
2022-08-26T03:30:35.112Z,100528.52
2022-08-26T03:33:17.412Z,100527.11
2022-08-26T03:36:00.776Z,100527.11
2022-08-26T03:38:43.661Z,100525.76
2022-08-26T03:41:27.503Z,100521.55
2022-08-26T03:44:09.501Z,100520.34
2022-08-26T03:46:54.242Z,100520.41
2022-08-26T03:49:37.559Z,100519.95
2022-08-26T03:52:19.591Z,100521.73
2022-08-26T03:55:01.589Z,100518.52
2022-08-26T03:57:45.122Z,100521.50
2022-08-26T04:00:27.031Z,100525.85
2022-08-26T04:03:14.657Z,100526.84
2022-08-26T04:06:00.131Z,100530.44
2022-08-26T04:08:42.127Z,100534.50
2022-08-26T04:11:28.649Z,100532.30
2022-08-26T04:14:17.619Z,100533.90
2022-08-26T04:17:05.119Z,100531.81
2022-08-26T04:19:47.937Z,100530.73
2022-08-26T04:22:29.835Z,100530.45
2022-08-26T04:25:12.753Z,100527.23
2022-08-26T04:27:55.180Z,100526.31
2022-08-26T04:30:38.185Z,100530.02
2022-08-26T04:33:32.521Z,100528.46
2022-08-26T04:36:15.130Z,100521.25
2022-08-26T04:38:57.797Z,100523.52
2022-08-26T04:41:40.075Z,100521.89
2022-08-26T04:44:27.688Z,100523.46
2022-08-26T04:47:09.627Z,100525.73
2022-08-26T04:49:57.875Z,100525.65
2022-08-26T04:52:39.870Z,100521.53
2022-08-26T04:55:25.330Z,100522.65
2022-08-26T04:58:23.630Z,100519.64
2022-08-26T05:01:06.044Z,100524.03
2022-08-26T05:03:49.022Z,100524.91
2022-08-26T05:06:30.955Z,100524.37
2022-08-26T05:09:19.304Z,100530.11
2022-08-26T05:12:01.300Z,100529.68
2022-08-26T05:14:43.196Z,100535.75
2022-08-26T05:17:27.371Z,100541.16
2022-08-26T05:20:09.754Z,100541.18
2022-08-26T05:22:52.775Z,100542.91
2022-08-26T05:25:41.981Z,100541.61
2022-08-26T05:28:23.882Z,100541.39
2022-08-26T05:31:17.713Z,100545.90
2022-08-26T05:34:03.649Z,100546.80
2022-08-26T05:36:46.318Z,100545.16
2022-08-26T05:39:28.213Z,100548.66
2022-08-26T05:42:10.519Z,100552.55
2022-08-26T05:44:55.783Z,100554.17
2022-08-26T05:47:38.201Z,100551.13
2022-08-26T05:50:23.319Z,100549.00
2022-08-26T05:53:07.677Z,100544.01
2022-08-26T05:55:52.797Z,100544.91
2022-08-26T05:58:36.881Z,100542.33
2022-08-26T06:01:21.947Z,100536.56
2022-08-26T06:04:06.267Z,100537.27
2022-08-26T06:06:48.578Z,100539.80
2022-08-26T06:09:30.979Z,100536.98
2022-08-26T06:12:13.183Z,100540.45
2022-08-26T06:14:57.843Z,100543.34
2022-08-26T06:17:39.818Z,100544.52
2022-08-26T06:20:21.841Z,100543.37
2022-08-26T06:23:23.089Z,100546.73
2022-08-26T06:26:06.111Z,100545.23
2022-08-26T06:28:48.007Z,100547.64
2022-08-26T06:31:33.644Z,100545.65
2022-08-26T06:34:20.197Z,100543.27
2022-08-26T06:37:03.633Z,100539.36
2022-08-26T06:39:46.342Z,100537.17
2022-08-26T06:42:28.134Z,100532.44
2022-08-26T06:45:10.691Z,100532.84
2022-08-26T06:47:53.155Z,100530.45
2022-08-26T06:50:35.397Z,100526.60
2022-08-26T06:53:17.560Z,100525.36
2022-08-26T06:56:04.988Z,100524.35
2022-08-26T06:58:47.541Z,100522.63
2022-08-26T07:01:33.805Z,100523.09
2022-08-26T07:04:20.253Z,100527.79
2022-08-26T07:07:04.551Z,100529.80
2022-08-26T07:09:47.059Z,100531.35
2022-08-26T07:12:32.334Z,100537.36
2022-08-26T07:15:15.356Z,100533.91
2022-08-26T07:17:57.662Z,100535.75
2022-08-26T07:20:40.786Z,100529.73
2022-08-26T07:23:24.944Z,100534.80
2022-08-26T07:26:10.927Z,100533.48
2022-08-26T07:28:57.533Z,100529.14
2022-08-26T07:31:42.383Z,100527.46
2022-08-26T07:34:25.263Z,100529.26
2022-08-26T07:37:08.914Z,100525.33
2022-08-26T07:39:51.688Z,100522.35
2022-08-26T07:42:34.694Z,100517.48
2022-08-26T07:45:17.511Z,100517.50
2022-08-26T07:47:59.757Z,100518.42
2022-08-26T07:50:50.116Z,100518.48
2022-08-26T07:53:34.870Z,100518.75
2022-08-26T07:56:16.871Z,100520.23
2022-08-26T07:58:59.071Z,100514.59
2022-08-26T08:01:41.459Z,100515.37
2022-08-26T08:04:27.983Z,100517.10
2022-08-26T08:07:11.545Z,100517.74
2022-08-26T08:09:54.846Z,100511.79
2022-08-26T08:12:38.735Z,100511.34
2022-08-26T08:15:25.200Z,100510.13
2022-08-26T08:18:07.223Z,100509.18
2022-08-26T08:21:10.784Z,100513.50
2022-08-26T08:24:00.779Z,100508.02
2022-08-26T08:26:42.676Z,100512.41
2022-08-26T08:29:25.087Z,100512.65
2022-08-26T08:32:11.631Z,100512.86
2022-08-26T08:34:57.887Z,100514.91
2022-08-26T08:37:41.318Z,100509.92
2022-08-26T08:40:26.472Z,100512.20
2022-08-26T08:43:38.661Z,100506.44
2022-08-26T08:46:20.723Z,100494.37
2022-08-26T08:49:04.442Z,100495.38
2022-08-26T08:52:02.443Z,100498.38
2022-08-26T08:54:46.145Z,100496.14
2022-08-26T08:57:55.779Z,100493.20
2022-08-26T09:01:14.264Z,100487.60
2022-08-26T09:04:02.292Z,100490.02
2022-08-26T09:06:50.431Z,100489.54
2022-08-26T09:09:47.589Z,100482.28
2022-08-26T09:12:36.656Z,100484.91
2022-08-26T09:15:35.925Z,100485.23
2022-08-26T09:18:53.279Z,100483.63
2022-08-26T09:21:37.930Z,100479.55
2022-08-26T09:24:24.406Z,100478.16
2022-08-26T09:27:41.459Z,100473.02
2022-08-26T09:30:36.218Z,100473.84
2022-08-26T09:33:31.849Z,100468.46
2022-08-26T09:36:37.775Z,100465.79
2022-08-26T09:39:29.459Z,100465.45
2022-08-26T09:42:16.938Z,100461.86
2022-08-26T09:45:04.404Z,100457.73
2022-08-26T09:47:57.566Z,100453.24
2022-08-26T09:51:24.112Z,100453.02
2022-08-26T09:54:08.080Z,100451.73
2022-08-26T09:56:50.259Z,100449.66
2022-08-26T09:59:32.359Z,100447.23
2022-08-26T10:02:30.231Z,100443.67
2022-08-26T10:05:20.057Z,100444.30
2022-08-26T10:08:42.457Z,100440.59
2022-08-26T10:11:48.214Z,100436.91
2022-08-26T10:14:49.771Z,100435.45
2022-08-26T10:17:42.984Z,100435.18
2022-08-26T10:20:37.348Z,100436.41
2022-08-26T10:23:24.993Z,100431.33
2022-08-26T10:26:16.059Z,100434.34
2022-08-26T10:29:09.322Z,100430.84
2022-08-26T10:32:02.511Z,100432.17
2022-08-26T10:34:45.708Z,100432.65
2022-08-26T10:37:37.742Z,100425.66
2022-08-26T10:40:28.183Z,100424.86
2022-08-26T10:43:17.717Z,100417.96
2022-08-26T10:46:06.872Z,100417.92
2022-08-26T10:48:56.454Z,100422.67
2022-08-26T10:51:56.008Z,100420.98
2022-08-26T10:54:39.804Z,100418.61
2022-08-26T10:57:43.512Z,100417.56
2022-08-26T11:00:55.443Z,100412.52
2022-08-26T11:03:54.514Z,100418.61
2022-08-26T11:06:40.604Z,100409.61
2022-08-26T11:09:45.485Z,100404.90
2022-08-26T11:12:37.198Z,100400.17
2022-08-26T11:15:27.048Z,100397.58
2022-08-26T11:18:12.293Z,100393.68
2022-08-26T11:20:54.116Z,100395.23
2022-08-26T11:23:50.465Z,100390.27
2022-08-26T11:26:56.041Z,100383.14
2022-08-26T11:30:02.271Z,100388.05
2022-08-26T11:32:59.842Z,100382.28
2022-08-26T11:35:46.068Z,100382.70
2022-08-26T11:38:30.920Z,100375.94
2022-08-26T11:41:21.185Z,100374.64
2022-08-26T11:44:07.690Z,100369.39
2022-08-26T11:46:59.980Z,100368.92
2022-08-26T11:49:41.922Z,100369.07
2022-08-26T11:52:25.256Z,100366.17
2022-08-26T11:55:12.345Z,100362.32
2022-08-26T11:58:00.962Z,100360.20
2022-08-26T12:00:59.964Z,100356.52
2022-08-26T12:03:44.778Z,100355.61
2022-08-26T12:06:34.660Z,100353.30
2022-08-26T12:09:28.650Z,100352.41
2022-08-26T12:12:17.726Z,100343.00
2022-08-26T12:15:20.602Z,100342.95
2022-08-26T12:18:28.757Z,100340.94
2022-08-26T12:21:22.491Z,100341.48
2022-08-26T12:24:06.633Z,100337.66
2022-08-26T12:26:48.734Z,100333.52
2022-08-26T12:29:30.652Z,100329.54
2022-08-26T12:32:18.370Z,100324.43
2022-08-26T12:35:09.697Z,100322.67
2022-08-26T12:37:55.159Z,100321.45
2022-08-26T12:40:43.639Z,100321.21
2022-08-26T12:43:46.218Z,100314.23
2022-08-26T12:46:30.282Z,100309.85
2022-08-26T12:49:12.336Z,100308.09
2022-08-26T12:51:54.334Z,100301.77
2022-08-26T12:54:56.816Z,100298.67
2022-08-26T12:57:39.425Z,100299.27
2022-08-26T13:00:37.145Z,100291.02
2022-08-26T13:03:29.636Z,100289.20
2022-08-26T13:06:31.668Z,100286.14
2022-08-26T13:09:19.437Z,100282.19
2022-08-26T13:12:02.126Z,100277.52
2022-08-26T13:14:44.252Z,100273.89
2022-08-26T13:17:30.967Z,100272.52
2022-08-26T13:20:13.166Z,100268.27
2022-08-26T13:22:59.095Z,100271.77
2022-08-26T13:25:41.466Z,100268.98
2022-08-26T13:28:23.357Z,100267.92
2022-08-26T13:31:05.975Z,100263.06
2022-08-26T13:33:48.787Z,100265.34
2022-08-26T13:36:31.399Z,100256.13
2022-08-26T13:39:13.400Z,100252.38
2022-08-26T13:41:55.295Z,100248.30
2022-08-26T13:44:39.546Z,100248.25
2022-08-26T13:47:22.103Z,100245.95
2022-08-26T13:50:05.589Z,100239.02
2022-08-26T13:52:47.689Z,100240.73
2022-08-26T13:55:29.687Z,100238.60
2022-08-26T13:58:12.504Z,100239.58
2022-08-26T14:00:56.714Z,100231.85
2022-08-26T14:03:39.631Z,100226.35
2022-08-26T14:06:21.777Z,100223.81
2022-08-26T14:09:04.947Z,100225.13
2022-08-26T14:11:53.915Z,100222.08
2022-08-26T14:14:36.988Z,100221.56
2022-08-26T14:17:22.774Z,100217.61
2022-08-26T14:20:07.970Z,100216.59
2022-08-26T14:23:12.569Z,100215.48
2022-08-26T14:25:52.731Z,100217.64
2022-08-26T14:28:35.752Z,100221.36
2022-08-26T14:31:18.225Z,100216.70
2022-08-26T14:34:03.951Z,100216.30
2022-08-26T14:36:45.843Z,100217.29
2022-08-26T14:39:27.786Z,100221.95
2022-08-26T14:42:10.453Z,100223.18
2022-08-26T14:44:56.647Z,100222.17
2022-08-26T14:47:38.649Z,100220.91
2022-08-26T14:50:26.321Z,100218.98
2022-08-26T14:53:27.331Z,100212.02
2022-08-26T14:56:13.693Z,100207.44
2022-08-26T14:58:58.182Z,100207.16
2022-08-26T15:01:40.187Z,100202.45
2022-08-26T15:04:23.347Z,100202.15
2022-08-26T15:07:05.609Z,100200.76
2022-08-26T15:09:47.811Z,100199.60
2022-08-26T15:12:32.372Z,100193.77
2022-08-26T15:15:17.457Z,100193.94
2022-08-26T15:17:59.378Z,100194.96
2022-08-26T15:20:41.333Z,100196.83
2022-08-26T15:23:23.638Z,100197.37
2022-08-26T15:26:10.156Z,100188.69
2022-08-26T15:28:52.550Z,100186.48
2022-08-26T15:31:35.113Z,100185.39
2022-08-26T15:34:17.469Z,100182.50
2022-08-26T15:36:59.570Z,100180.84
2022-08-26T15:39:43.615Z,100180.98
2022-08-26T15:42:25.559Z,100181.34
2022-08-26T15:45:07.975Z,100181.44
2022-08-26T15:48:01.232Z,100181.82
2022-08-26T15:50:58.234Z,100180.88
2022-08-26T15:53:40.128Z,100182.67
2022-08-26T15:56:28.962Z,100182.23
2022-08-26T15:59:13.403Z,100182.52
2022-08-26T16:01:57.426Z,100181.04
2022-08-26T16:04:39.692Z,100185.27
2022-08-26T16:07:21.689Z,100180.78
2022-08-26T16:10:04.142Z,100184.97
2022-08-26T16:12:47.016Z,100186.14
2022-08-26T16:15:29.016Z,100188.42
2022-08-26T16:18:11.424Z,100187.17
2022-08-26T16:21:12.373Z,100190.89
2022-08-26T16:23:57.866Z,100181.41
2022-08-26T16:26:42.066Z,100184.26
2022-08-26T16:29:24.810Z,100178.65
2022-08-26T16:32:09.164Z,100179.89
2022-08-26T16:34:56.575Z,100175.89
2022-08-26T16:37:39.492Z,100182.40
2022-08-26T16:40:22.409Z,100180.70
2022-08-26T16:43:04.633Z,100182.96
2022-08-26T16:45:46.530Z,100176.29
2022-08-26T16:48:28.422Z,100177.30
2022-08-26T16:51:16.248Z,100181.25
2022-08-26T16:53:59.343Z,100184.42
2022-08-26T16:56:41.279Z,100185.13
2022-08-26T16:59:24.141Z,100188.10
2022-08-26T17:02:06.431Z,100187.48
2022-08-26T17:04:50.246Z,100193.64
2022-08-26T17:07:32.651Z,100194.42
2022-08-26T17:10:14.649Z,100191.91
2022-08-26T17:12:57.158Z,100193.42
2022-08-26T17:15:39.097Z,100192.57
2022-08-26T17:18:27.543Z,100192.95
2022-08-26T17:21:12.656Z,100189.08
2022-08-26T17:23:55.394Z,100189.31
2022-08-26T17:26:38.211Z,100189.67
2022-08-26T17:29:20.718Z,100187.92
2022-08-26T17:32:03.596Z,100184.98
2022-08-26T17:34:45.534Z,100182.46
2022-08-26T17:37:28.613Z,100183.45
2022-08-26T17:40:16.273Z,100185.92
2022-08-26T17:42:59.516Z,100189.96
2022-08-26T17:45:42.757Z,100188.71
2022-08-26T17:48:24.946Z,100186.19
2022-08-26T17:51:13.587Z,100186.58
2022-08-26T17:53:56.110Z,100190.20
2022-08-26T17:56:38.723Z,100189.44
2022-08-26T17:59:20.619Z,100188.29
2022-08-26T18:02:04.304Z,100191.36
2022-08-26T18:04:48.067Z,100189.48
2022-08-26T18:07:31.938Z,100187.72
2022-08-26T18:10:21.568Z,100190.02
2022-08-26T18:13:03.616Z,100188.67
2022-08-26T18:15:47.107Z,100188.21
2022-08-26T18:18:29.045Z,100188.96
2022-08-26T18:21:16.608Z,100189.13
2022-08-26T18:23:58.775Z,100186.80
2022-08-26T18:26:48.236Z,100185.57
2022-08-26T18:29:30.297Z,100186.35
2022-08-26T18:32:12.079Z,100190.64
2022-08-26T18:34:53.983Z,100192.39
2022-08-26T18:37:35.934Z,100191.32
2022-08-26T18:40:17.882Z,100188.61
2022-08-26T18:43:00.958Z,100185.15
2022-08-26T18:45:44.735Z,100190.80
2022-08-26T18:48:27.000Z,100189.13
2022-08-26T18:51:15.243Z,100190.37
2022-08-26T18:53:57.963Z,100189.96
2022-08-26T18:56:40.883Z,100188.23
2022-08-26T18:59:28.389Z,100189.90
2022-08-26T19:02:12.968Z,100188.39
2022-08-26T19:04:55.066Z,100190.27
2022-08-26T19:07:39.616Z,100190.23
2022-08-26T19:10:28.380Z,100194.30
2022-08-26T19:13:10.457Z,100196.25
2022-08-26T19:15:52.699Z,100200.42
2022-08-26T19:18:45.251Z,100198.86
2022-08-26T19:21:39.489Z,100202.31
2022-08-26T19:24:27.302Z,100204.70
2022-08-26T19:27:16.823Z,100209.46
2022-08-26T19:30:00.357Z,100209.67
2022-08-26T19:32:42.355Z,100209.19
2022-08-26T19:35:24.252Z,100208.05
2022-08-26T19:38:07.990Z,100208.64
2022-08-26T19:40:49.989Z,100213.29
2022-08-26T19:43:32.805Z,100217.02
2022-08-26T19:46:18.688Z,100214.73
2022-08-26T19:49:04.615Z,100213.92
2022-08-26T19:51:48.324Z,100216.55
2022-08-26T19:54:30.835Z,100215.70
2022-08-26T19:57:12.934Z,100218.17
2022-08-26T19:59:55.240Z,100216.75
2022-08-26T20:02:37.900Z,100219.23
2022-08-26T20:05:23.003Z,100216.50
2022-08-26T20:08:05.516Z,100218.59
2022-08-26T20:10:49.219Z,100218.42
2022-08-26T20:13:32.050Z,100220.67
2022-08-26T20:16:15.336Z,100222.00
2022-08-26T20:19:17.591Z,100232.33
2022-08-26T20:22:00.204Z,100232.64
2022-08-26T20:24:42.201Z,100231.63
2022-08-26T20:27:38.142Z,100230.83
2022-08-26T20:30:22.484Z,100231.76
2022-08-26T20:33:04.584Z,100228.64
2022-08-26T20:35:47.140Z,100224.30
2022-08-26T20:38:29.089Z,100226.36
2022-08-26T20:41:11.983Z,100229.27
2022-08-26T20:43:55.544Z,100232.42
2022-08-26T20:46:37.974Z,100232.18
2022-08-26T20:49:19.994Z,100231.61
2022-08-26T20:52:03.559Z,100233.65
2022-08-26T20:54:45.457Z,100232.10
2022-08-26T20:57:27.322Z,100232.84
2022-08-26T21:00:12.343Z,100233.02
2022-08-26T21:02:56.904Z,100233.62
2022-08-26T21:05:38.799Z,100232.02
2022-08-26T21:08:21.513Z,100227.98
2022-08-26T21:11:03.901Z,100226.23
2022-08-26T21:14:04.516Z,100225.13
2022-08-26T21:16:51.545Z,100227.36
2022-08-26T21:19:34.287Z,100223.07
2022-08-26T21:22:16.421Z,100216.34
2022-08-26T21:24:58.693Z,100210.31
2022-08-26T21:27:40.588Z,100211.58
2022-08-26T21:30:23.202Z,100206.54
2022-08-26T21:33:05.301Z,100207.77
2022-08-26T21:35:54.452Z,100204.52
2022-08-26T21:38:37.216Z,100199.06
2022-08-26T21:41:22.231Z,100200.79
2022-08-26T21:44:04.457Z,100199.05
2022-08-26T21:46:47.124Z,100197.91
2022-08-26T21:49:29.068Z,100198.88
2022-08-26T21:52:12.977Z,100193.89
2022-08-26T21:55:00.025Z,100192.67
2022-08-26T21:57:42.129Z,100196.23
2022-08-26T22:00:24.536Z,100193.02
2022-08-26T22:03:06.377Z,100192.61
2022-08-26T22:05:52.388Z,100191.77
2022-08-26T22:08:34.878Z,100188.11
2022-08-26T22:11:18.864Z,100186.19
2022-08-26T22:14:00.779Z,100188.58
2022-08-26T22:16:44.468Z,100186.23
2022-08-26T22:19:34.063Z,100188.70
2022-08-26T22:22:23.354Z,100181.97
2022-08-26T22:25:05.753Z,100184.29
2022-08-26T22:27:47.614Z,100180.13
2022-08-26T22:30:29.496Z,100178.35
2022-08-26T22:33:11.428Z,100178.42
2022-08-26T22:35:53.296Z,100178.88
2022-08-26T22:38:35.109Z,100176.45
2022-08-26T22:41:18.398Z,100176.54
2022-08-26T22:44:02.793Z,100176.25
2022-08-26T22:46:46.458Z,100172.16
2022-08-26T22:49:28.778Z,100169.29
2022-08-26T22:52:10.706Z,100168.08
2022-08-26T22:54:53.476Z,100162.96
2022-08-26T22:57:35.372Z,100167.47
2022-08-26T23:00:17.372Z,100165.57
2022-08-26T23:03:00.544Z,100166.98
2022-08-26T23:05:44.234Z,100165.48
2022-08-26T23:08:27.872Z,100164.75
2022-08-26T23:11:11.863Z,100161.79
2022-08-26T23:13:53.709Z,100157.55
2022-08-26T23:16:39.358Z,100158.50
2022-08-26T23:19:22.826Z,100154.64
2022-08-26T23:22:04.824Z,100152.55
2022-08-26T23:24:46.724Z,100150.90
2022-08-26T23:27:29.596Z,100151.44
2022-08-26T23:30:16.212Z,100146.88
2022-08-26T23:32:58.490Z,100147.48
2022-08-26T23:35:40.756Z,100147.16
2022-08-26T23:38:23.166Z,100147.57
2022-08-26T23:41:05.160Z,100144.30
2022-08-26T23:43:47.933Z,100143.95
2022-08-26T23:46:29.875Z,100146.90
2022-08-26T23:49:11.974Z,100143.31
2022-08-26T23:52:13.376Z,100143.35
2022-08-26T23:54:55.733Z,100135.43
2022-08-26T23:57:38.246Z,100131.48
